Time;durP1;ratioP1;P1;durP2;ratioP2;P2;SDS_P1;SDS_P2;PMS_P1;PMS_P2;Temp;Humidity;BMP_temperature;BMP_pressure;BME280_temperature;BME280_humidity;BME280_pressure;Samples;Min_cycle;Max_cycle;Signal;HPM_P1;HPM_P2
2021/06/22 00:01:03;;;;;;;0.10;0.10;;;15.60;99.90;;;;;;5032427;28;20403;-89
2021/06/22 00:03:29;;;;;;;0.10;0.10;;;15.50;99.90;;;;;;5032079;28;20025;-89
2021/06/22 00:05:55;;;;;;;6.63;0.57;;;15.60;99.90;;;;;;5032777;28;20056;-89
2021/06/22 00:08:21;;;;;;;0.30;0.30;;;15.60;99.90;;;;;;5048554;28;20033;-88
2021/06/22 00:10:47;;;;;;;0.10;0.10;;;15.70;99.90;;;;;;5032753;28;20033;-88
2021/06/22 00:13:13;;;;;;;0.20;0.20;;;15.70;99.90;;;;;;5033750;28;20097;-90
2021/06/22 00:15:39;;;;;;;0.00;0.00;;;15.70;99.90;;;;;;5049046;28;20053;-90
2021/06/22 00:18:05;;;;;;;0.00;0.00;;;15.70;99.90;;;;;;5049020;28;20116;-90
2021/06/22 00:20:31;;;;;;;0.63;0.13;;;15.70;99.90;;;;;;5049033;28;20340;-89
2021/06/22 00:22:57;;;;;;;0.00;0.00;;;15.70;99.90;;;;;;5048918;28;20067;-89
2021/06/22 00:25:25;;;;;;;0.17;0.17;;;15.70;99.90;;;;;;5048755;28;20172;-89
2021/06/22 00:27:52;;;;;;;0.00;0.00;;;15.60;99.90;;;;;;5048303;28;20025;-89
2021/06/22 00:30:18;;;;;;;0.10;0.10;;;15.60;99.90;;;;;;5047853;28;20022;-90
2021/06/22 00:32:45;;;;;;;0.20;0.20;;;15.50;99.90;;;;;;5048010;28;20027;-89
2021/06/22 00:35:11;;;;;;;0.08;0.08;;;15.60;99.90;;;;;;5048468;28;20032;-90
2021/06/22 00:37:38;;;;;;;0.00;0.00;;;15.50;99.90;;;;;;5048718;28;20036;-89
2021/06/22 00:40:04;;;;;;;;;;;15.40;99.90;;;;;;5032388;28;20033;-89
2021/06/22 00:42:30;;;;;;;0.00;0.00;;;15.30;99.90;;;;;;5048341;28;19951;-89
2021/06/22 00:44:58;;;;;;;0.07;0.07;;;15.20;99.90;;;;;;5031905;28;20083;-89
2021/06/22 00:47:25;;;;;;;0.10;0.10;;;15.20;99.90;;;;;;5048384;28;20402;-89
2021/06/22 00:49:51;;;;;;;0.03;0.03;;;15.30;99.90;;;;;;5033286;28;20100;-90
2021/06/22 00:52:24;;;;;;;0.40;0.40;;;15.30;99.90;;;;;;5033257;28;20084;-90
2021/06/22 00:54:51;;;;;;;1.17;0.20;;;15.30;99.90;;;;;;5031684;28;20407;-90
2021/06/22 00:57:19;;;;;;;0.88;0.20;;;15.20;99.90;;;;;;5048584;28;20037;-91
2021/06/22 00:59:45;;;;;;;0.00;0.00;;;15.10;99.90;;;;;;5048648;28;20030;-90
2021/06/22 01:02:11;;;;;;;0.00;0.00;;;14.90;99.90;;;;;;5048468;28;20033;-90
2021/06/22 01:04:37;;;;;;;0.20;0.20;;;14.90;99.90;;;;;;5048399;28;20025;-90
2021/06/22 01:07:04;;;;;;;1.30;0.53;;;14.90;99.90;;;;;;5032996;28;20030;-90
2021/06/22 01:09:30;;;;;;;0.20;0.20;;;15.00;99.90;;;;;;5048509;28;20029;-90
2021/06/22 01:11:58;;;;;;;0.10;0.10;;;15.00;99.90;;;;;;5033080;28;20028;-89
2021/06/22 01:14:27;;;;;;;0.10;0.10;;;15.10;99.90;;;;;;5048516;28;20030;-90
2021/06/22 01:16:54;;;;;;;1.98;0.15;;;15.20;99.90;;;;;;5048638;28;20026;-90
2021/06/22 01:19:20;;;;;;;;;;;15.40;99.90;;;;;;5048625;28;20017;-90
2021/06/22 01:21:47;;;;;;;0.00;0.00;;;15.30;99.90;;;;;;5033023;28;19969;-90
2021/06/22 01:24:18;;;;;;;0.00;0.00;;;15.30;99.90;;;;;;5048268;28;20057;-89
2021/06/22 01:26:54;;;;;;;0.00;0.00;;;15.30;99.90;;;;;;5048062;28;20018;-89
2021/06/22 01:29:20;;;;;;;0.17;0.17;;;15.40;99.90;;;;;;5047991;28;20025;-89
2021/06/22 01:35:05;;;;;;;0.32;0.15;;;15.50;99.90;;;;;;5033053;28;20057;-90
2021/06/22 01:37:31;;;;;;;0.08;0.08;;;15.50;99.90;;;;;;5048092;28;20055;-90
2021/06/22 01:40:00;;;;;;;0.00;0.00;;;15.40;99.90;;;;;;5048121;28;20384;-90
2021/06/22 01:42:26;;;;;;;0.08;0.08;;;15.40;99.90;;;;;;5051334;28;20487;-90
2021/06/22 01:44:54;;;;;;;0.03;0.03;;;15.20;99.90;;;;;;5051899;28;20040;-90
2021/06/22 01:47:20;;;;;;;0.00;0.00;;;15.20;99.90;;;;;;5051753;28;20029;-90
2021/06/22 01:49:45;;;;;;;0.00;0.00;;;15.20;99.90;;;;;;5036515;28;20018;-90
2021/06/22 01:52:16;;;;;;;0.40;0.10;;;15.20;99.90;;;;;;5051715;28;20103;-90
2021/06/22 01:54:42;;;;;;;0.10;0.10;;;15.30;99.90;;;;;;5051416;28;20021;-90
2021/06/22 01:57:07;;;;;;;0.10;0.10;;;15.20;99.90;;;;;;5051705;28;20044;-90
2021/06/22 01:59:33;;;;;;;0.00;0.00;;;15.20;99.90;;;;;;5036267;28;20425;-90
2021/06/22 02:01:59;;;;;;;0.00;0.00;;;15.30;99.90;;;;;;5051318;28;20025;-90
2021/06/22 02:04:27;;;;;;;0.10;0.10;;;15.30;99.90;;;;;;5051566;28;20471;-89
2021/06/22 02:06:53;;;;;;;0.15;0.15;;;15.30;99.90;;;;;;5050896;28;20059;-89
2021/06/22 02:09:18;;;;;;;0.20;0.20;;;15.40;99.90;;;;;;5051056;28;20025;-89
2021/06/22 02:11:44;;;;;;;0.00;0.00;;;15.30;99.90;;;;;;5051256;28;20028;-89
2021/06/22 02:14:10;;;;;;;0.30;0.23;;;15.30;99.90;;;;;;5051211;28;20683;-89
2021/06/22 02:16:36;;;;;;;0.07;0.07;;;15.10;99.90;;;;;;5051297;28;20026;-90
2021/06/22 02:19:01;;;;;;;0.00;0.00;;;15.10;99.90;;;;;;5034708;28;20030;-91
2021/06/22 02:21:27;;;;;;;0.23;0.13;;;15.30;99.90;;;;;;5051405;28;20029;-91
2021/06/22 02:23:53;;;;;;;0.10;0.10;;;15.30;99.90;;;;;;5051194;28;20395;-89
2021/06/22 02:26:19;;;;;;;0.20;0.20;;;15.30;99.90;;;;;;5034480;28;20034;-91
2021/06/22 02:28:45;;;;;;;0.20;0.20;;;15.30;99.90;;;;;;5050846;28;20112;-91
2021/06/22 02:31:10;;;;;;;0.00;0.00;;;15.30;99.90;;;;;;5050805;28;20025;-90
2021/06/22 02:33:36;;;;;;;0.00;0.00;;;15.20;99.90;;;;;;5051037;28;20032;-89
2021/06/22 02:36:02;;;;;;;4.30;0.83;;;15.20;99.90;;;;;;5035508;28;20025;-89
2021/06/22 02:38:29;;;;;;;0.25;0.25;;;15.20;99.90;;;;;;5050571;28;20029;-90
2021/06/22 02:40:55;;;;;;;0.10;0.10;;;15.20;99.90;;;;;;5035867;28;20037;-90
2021/06/22 02:43:20;;;;;;;0.40;0.20;;;15.10;99.90;;;;;;5051096;28;20029;-90
2021/06/22 02:46:04;;;;;;;0.10;0.10;;;15.10;99.90;;;;;;5050871;28;20026;-90
2021/06/22 02:55:18;;;;;;;0.10;0.10;;;15.10;99.90;;;;;;5035205;28;20060;-90
2021/06/22 02:57:49;;;;;;;0.10;0.10;;;15.00;99.90;;;;;;5050311;28;20037;-90
2021/06/22 03:00:17;;;;;;;0.08;0.08;;;14.90;99.90;;;;;;5050231;28;20026;-90
2021/06/22 03:02:43;;;;;;;0.10;0.10;;;14.90;99.90;;;;;;5050570;28;20083;-90
2021/06/22 03:05:11;;;;;;;0.40;0.40;;;14.90;99.90;;;;;;5049906;28;20045;-89
2021/06/22 03:07:37;;;;;;;0.13;0.13;;;14.90;99.90;;;;;;5033963;28;20686;-88
2021/06/22 03:10:10;;;;;;;0.10;0.10;;;14.90;99.90;;;;;;5034093;28;20075;-89
2021/06/22 03:12:36;;;;;;;0.20;0.20;;;14.90;99.90;;;;;;5050389;28;20574;-90
2021/06/22 03:15:04;;;;;;;0.10;0.10;;;15.00;99.90;;;;;;5049934;28;20032;-90
2021/06/22 03:17:30;;;;;;;0.00;0.00;;;15.00;99.90;;;;;;5049630;28;20037;-90
2021/06/22 03:19:55;;;;;;;0.10;0.10;;;15.00;99.90;;;;;;5049978;28;20025;-90
2021/06/22 03:22:21;;;;;;;0.00;0.00;;;15.10;99.90;;;;;;5034674;28;20032;-90
2021/06/22 03:24:47;;;;;;;0.00;0.00;;;15.00;99.90;;;;;;5050059;28;20187;-90
2021/06/22 03:27:13;;;;;;;0.00;0.00;;;15.10;99.90;;;;;;5049911;28;20025;-90
2021/06/22 03:29:39;;;;;;;0.40;0.40;;;15.10;99.90;;;;;;5049862;28;20268;-90
2021/06/22 03:32:05;;;;;;;0.27;0.10;;;15.10;99.90;;;;;;5049804;28;20017;-90
2021/06/22 03:34:31;;;;;;;0.00;0.00;;;15.10;99.90;;;;;;5034553;28;20021;-90
2021/06/22 03:36:57;;;;;;;0.10;0.10;;;15.10;99.90;;;;;;5033297;28;20033;-90
2021/06/22 03:39:23;;;;;;;0.10;0.10;;;15.00;99.90;;;;;;5049716;28;20026;-90
2021/06/22 03:45:24;;;;;;;0.10;0.10;;;15.00;99.90;;;;;;5034137;28;20080;-90
2021/06/22 03:47:51;;;;;;;0.30;0.30;;;15.00;99.90;;;;;;5049222;28;20033;-90
2021/06/22 03:50:16;;;;;;;0.63;0.63;;;15.00;99.90;;;;;;5049559;28;20025;-91
2021/06/22 03:52:42;;;;;;;0.73;0.50;;;15.00;99.90;;;;;;5039267;28;20033;-90
2021/06/22 03:55:27;;;;;;;0.30;0.30;;;14.90;99.90;;;;;;5029568;28;20064;-90
2021/06/22 03:57:59;;;;;;;0.13;0.10;;;14.80;99.90;;;;;;5029518;28;20453;-90
2021/06/22 04:00:25;;;;;;;0.15;0.15;;;14.80;99.90;;;;;;5029201;28;20112;-90
2021/06/22 04:02:52;;;;;;;0.10;0.10;;;14.80;99.90;;;;;;5027655;28;20029;-89
2021/06/22 04:05:18;;;;;;;0.17;0.17;;;14.70;99.90;;;;;;5021168;28;20132;-91
2021/06/22 04:07:44;;;;;;;0.40;0.40;;;14.80;99.90;;;;;;5029658;28;20033;-90
2021/06/22 04:10:10;;;;;;;0.53;0.33;;;14.70;99.90;;;;;;5027083;28;20040;-88
2021/06/22 04:12:36;;;;;;;0.10;0.10;;;14.70;99.90;;;;;;5021219;28;20028;-88
2021/06/22 04:15:03;;;;;;;4.50;0.97;;;14.70;99.90;;;;;;5030710;28;20017;-88
2021/06/22 04:17:29;;;;;;;0.00;0.00;;;14.70;99.90;;;;;;5030668;28;20509;-89
2021/06/22 04:19:54;;;;;;;0.10;0.10;;;14.70;99.90;;;;;;5030736;28;20030;-90
2021/06/22 04:22:20;;;;;;;0.30;0.30;;;14.70;99.90;;;;;;5030158;28;20446;-90
2021/06/22 04:24:46;;;;;;;0.10;0.10;;;14.70;99.90;;;;;;5030954;28;20056;-90
2021/06/22 04:27:12;;;;;;;0.50;0.50;;;14.70;99.90;;;;;;5030867;28;20423;-90
2021/06/22 04:29:38;;;;;;;0.00;0.00;;;14.60;99.90;;;;;;5029499;28;20080;-90
2021/06/22 04:32:04;;;;;;;0.10;0.10;;;14.70;99.90;;;;;;5030596;28;20267;-91
2021/06/22 04:34:30;;;;;;;4.70;0.67;;;14.60;99.90;;;;;;5031649;28;20029;-92
2021/06/22 04:36:56;;;;;;;1.57;0.90;;;14.70;99.90;;;;;;5028550;28;20125;-91
2021/06/22 04:39:22;;;;;;;0.00;0.00;;;14.80;99.90;;;;;;5031414;28;20275;-91
2021/06/22 04:41:48;;;;;;;0.40;0.40;;;14.70;99.90;;;;;;5030603;28;20041;-91
2021/06/22 04:44:13;;;;;;;0.20;0.20;;;14.70;99.90;;;;;;5029573;28;20034;-85
2021/06/22 04:46:39;;;;;;;0.10;0.10;;;15.00;99.90;;;;;;5029324;28;20029;-85
2021/06/22 04:49:05;;;;;;;1.03;0.50;;;15.40;99.90;;;;;;5028876;28;20025;-85
2021/06/22 04:51:31;;;;;;;0.10;0.10;;;15.00;99.90;;;;;;5027136;28;20051;-87
2021/06/22 04:53:57;;;;;;;0.00;0.00;;;15.00;99.90;;;;;;5028877;28;20025;-86
2021/06/22 04:56:24;;;;;;;0.10;0.10;;;14.80;99.90;;;;;;5027796;28;20022;-90
2021/06/22 04:58:56;;;;;;;0.10;0.10;;;15.00;99.90;;;;;;5017173;28;20044;-92
2021/06/22 05:01:24;;;;;;;0.55;0.45;;;15.00;99.90;;;;;;5028741;28;20176;-91
2021/06/22 05:03:50;;;;;;;0.63;0.63;;;14.90;99.90;;;;;;5028696;28;20040;-91
2021/06/22 05:06:16;;;;;;;4.23;1.30;;;14.90;99.90;;;;;;5016648;28;20049;-89
2021/06/22 05:08:42;;;;;;;0.17;0.17;;;14.90;99.90;;;;;;5017590;28;20034;-89
2021/06/22 05:11:07;;;;;;;0.13;0.13;;;14.90;99.90;;;;;;5014093;28;20446;-90
2021/06/22 05:13:34;;;;;;;0.17;0.17;;;14.80;99.90;;;;;;5038163;28;20049;-88
2021/06/22 05:16:00;;;;;;;0.10;0.10;;;14.80;99.90;;;;;;5034085;28;20032;-89
2021/06/22 05:18:27;;;;;;;0.10;0.10;;;14.80;99.90;;;;;;5027343;28;20044;-91
2021/06/22 05:20:53;;;;;;;0.85;0.47;;;14.90;99.90;;;;;;5019608;28;20033;-89
2021/06/22 05:23:19;;;;;;;0.10;0.10;;;15.00;99.90;;;;;;5030588;28;20042;-90
2021/06/22 05:25:44;;;;;;;0.57;0.57;;;15.10;99.90;;;;;;5016326;28;20038;-90
2021/06/22 05:28:12;;;;;;;0.20;0.20;;;15.10;99.90;;;;;;5022713;28;20022;-90
2021/06/22 05:30:38;;;;;;;0.57;0.57;;;15.10;99.90;;;;;;5030422;28;20039;-90
2021/06/22 05:33:04;;;;;;;0.10;0.10;;;15.00;99.90;;;;;;5032659;28;20112;-90
2021/06/22 05:35:30;;;;;;;0.10;0.10;;;15.00;99.90;;;;;;5026326;28;20025;-89
2021/06/22 05:37:56;;;;;;;0.10;0.10;;;15.10;99.90;;;;;;5034933;28;20022;-90
2021/06/22 05:40:22;;;;;;;0.00;0.00;;;15.10;99.90;;;;;;5033091;28;20079;-89
2021/06/22 05:42:48;;;;;;;0.00;0.00;;;15.20;99.90;;;;;;5032235;28;20033;-89
2021/06/22 05:45:14;;;;;;;0.10;0.10;;;15.20;99.90;;;;;;5032670;28;20037;-90
2021/06/22 05:47:40;;;;;;;0.10;0.10;;;15.40;99.90;;;;;;5032774;28;20029;-90
2021/06/22 05:50:07;;;;;;;0.00;0.00;;;15.40;99.90;;;;;;5034206;28;20495;-90
2021/06/22 05:52:33;;;;;;;;;;;15.40;99.90;;;;;;5033214;28;20407;-90
2021/06/22 05:54:59;;;;;;;0.10;0.10;;;15.50;99.90;;;;;;5034155;28;19909;-90
2021/06/22 05:57:25;;;;;;;0.10;0.10;;;15.60;99.90;;;;;;5013885;28;20038;-90
2021/06/22 05:59:50;;;;;;;0.10;0.10;;;15.50;99.90;;;;;;5029804;28;20080;-90
2021/06/22 06:02:16;;;;;;;0.33;0.33;;;15.30;99.90;;;;;;5029443;28;20030;-90
2021/06/22 06:04:42;;;;;;;0.13;0.13;;;15.10;99.90;;;;;;5028859;28;20041;-89
2021/06/22 06:07:08;;;;;;;0.00;0.00;;;15.20;99.90;;;;;;5012783;28;20040;-90
2021/06/22 06:09:34;;;;;;;0.00;0.00;;;15.50;99.90;;;;;;5013516;28;20061;-90
2021/06/22 06:12:00;;;;;;;0.10;0.10;;;15.50;99.90;;;;;;5014106;28;20064;-90
2021/06/22 06:14:26;;;;;;;0.00;0.00;;;15.50;99.90;;;;;;5014019;28;20033;-91
2021/06/22 06:16:52;;;;;;;0.20;0.10;;;15.60;99.90;;;;;;5012419;28;20022;-90
2021/06/22 06:19:17;;;;;;;4.40;1.30;;;15.50;99.90;;;;;;4996397;28;20272;-90
2021/06/22 06:21:45;;;;;;;0.17;0.17;;;15.50;99.90;;;;;;5013418;28;20112;-90
2021/06/22 06:24:11;;;;;;;0.30;0.30;;;15.60;99.90;;;;;;5013582;28;20025;-90
2021/06/22 06:26:46;;;;;;;0.00;0.00;;;15.70;99.90;;;;;;4993745;28;20084;-90
2021/06/22 06:29:39;;;;;;;6.13;0.80;;;15.70;99.90;;;;;;4994987;28;20031;-90
2021/06/22 06:32:05;;;;;;;3.33;0.20;;;15.60;99.90;;;;;;4993372;28;20073;-90
2021/06/22 06:34:31;;;;;;;0.00;0.00;;;15.70;99.90;;;;;;4994718;28;20026;-90
2021/06/22 06:36:57;;;;;;;0.10;0.10;;;15.80;99.90;;;;;;4994577;28;20097;-90
2021/06/22 06:39:23;;;;;;;1.33;0.40;;;15.90;99.90;;;;;;4993169;28;20109;-89
2021/06/22 06:41:48;;;;;;;0.03;0.03;;;15.80;99.90;;;;;;4976676;28;20109;-90
2021/06/22 06:44:14;;;;;;;1.33;0.87;;;15.70;99.90;;;;;;4993124;28;20026;-90
2021/06/22 06:46:40;;;;;;;0.80;0.30;;;15.80;99.90;;;;;;4993247;28;20026;-91
2021/06/22 06:49:06;;;;;;;0.00;0.00;;;15.80;99.90;;;;;;4992789;28;20030;-90
2021/06/22 06:51:32;;;;;;;0.33;0.10;;;16.30;99.90;;;;;;4994388;28;20416;-90
2021/06/22 06:53:57;;;;;;;0.30;0.30;;;16.80;99.90;;;;;;4993001;28;20054;-90
2021/06/22 06:56:23;;;;;;;0.00;0.00;;;17.30;99.90;;;;;;4993595;28;20395;-90
2021/06/22 06:58:49;;;;;;;0.03;0.03;;;17.30;99.90;;;;;;4994224;28;20495;-90
2021/06/22 07:01:15;;;;;;;0.10;0.10;;;16.90;99.90;;;;;;4994653;28;20026;-90
2021/06/22 07:03:44;;;;;;;0.13;0.13;;;17.20;99.90;;;;;;4993508;28;20114;-90
2021/06/22 07:06:14;;;;;;;0.20;0.20;;;18.00;99.90;;;;;;5015119;28;20061;-90
2021/06/22 07:08:40;;;;;;;0.00;0.00;;;18.60;99.90;;;;;;5029546;28;20025;-90
2021/06/22 07:11:07;;;;;;;0.00;0.00;;;18.60;99.90;;;;;;5029101;28;20022;-90
2021/06/22 07:13:33;;;;;;;0.08;0.08;;;17.90;99.90;;;;;;5029509;28;20030;-90
2021/06/22 07:15:59;;;;;;;0.20;0.20;;;18.00;99.90;;;;;;5029331;28;20018;-90
2021/06/22 07:18:29;;;;;;;0.52;0.20;;;18.60;99.90;;;;;;5029560;28;20044;-90
2021/06/22 07:20:56;;;;;;;0.10;0.10;;;18.60;99.90;;;;;;5035136;28;20030;-90
2021/06/22 07:23:22;;;;;;;0.10;0.10;;;18.40;99.90;;;;;;5032059;28;20376;-90
2021/06/22 07:25:48;;;;;;;0.10;0.10;;;18.40;99.90;;;;;;5032554;28;20040;-90
2021/06/22 07:28:13;;;;;;;7.47;0.57;;;18.90;99.90;;;;;;5032111;28;20327;-90
2021/06/22 07:30:39;;;;;;;0.07;0.00;;;19.00;99.90;;;;;;5032281;28;20490;-90
2021/06/22 07:33:05;;;;;;;0.00;0.00;;;18.20;99.90;;;;;;5032478;28;20030;-90
2021/06/22 07:35:33;;;;;;;0.30;0.15;;;17.70;99.90;;;;;;5032276;28;20519;-90
2021/06/22 07:37:59;;;;;;;0.10;0.10;;;17.30;99.90;;;;;;5033309;28;20037;-91
2021/06/22 07:40:26;;;;;;;0.10;0.10;;;17.60;99.90;;;;;;5031587;28;20107;-91
2021/06/22 07:42:53;;;;;;;0.10;0.10;;;18.00;99.90;;;;;;5032044;28;20029;-90
2021/06/22 07:45:20;;;;;;;0.00;0.00;;;18.20;99.90;;;;;;5031831;28;20029;-91
2021/06/22 07:47:46;;;;;;;0.00;0.00;;;18.30;99.90;;;;;;5033194;28;20479;-90
2021/06/22 07:50:13;;;;;;;0.00;0.00;;;18.80;99.90;;;;;;5031880;28;20025;-91
2021/06/22 07:52:40;;;;;;;1.45;0.55;;;18.00;99.90;;;;;;5031915;28;20557;-91
2021/06/22 07:55:13;;;;;;;0.13;0.13;;;19.50;99.90;;;;;;5033277;28;20636;-90
2021/06/22 07:57:46;;;;;;;0.10;0.10;;;20.00;99.90;;;;;;5031857;28;20490;-91
2021/06/22 08:00:46;;;;;;;0.10;0.10;;;20.10;99.90;;;;;;5031905;28;20026;-90
2021/06/22 08:03:21;;;;;;;0.00;0.00;;;21.50;99.90;;;;;;5014943;28;20061;-90
2021/06/22 08:05:49;;;;;;;0.20;0.20;;;21.00;99.90;;;;;;5031873;28;20547;-91
2021/06/22 08:08:17;;;;;;;0.00;0.00;;;19.40;99.90;;;;;;5032909;28;20025;-91
2021/06/22 08:10:47;;;;;;;0.15;0.15;;;19.60;99.90;;;;;;5031695;28;20514;-91
2021/06/22 08:13:14;;;;;;;0.03;0.03;;;19.40;99.90;;;;;;5031405;28;20030;-90
2021/06/22 08:15:40;;;;;;;0.05;0.05;;;19.20;99.90;;;;;;5031420;28;20482;-90
2021/06/22 08:18:07;;;;;;;0.10;0.10;;;18.60;99.90;;;;;;5032662;28;20533;-90
2021/06/22 08:20:34;;;;;;;0.08;0.08;;;18.40;99.90;;;;;;5032382;28;20036;-90
2021/06/22 08:23:00;;;;;;;2.90;0.10;;;18.60;99.90;;;;;;5031482;28;20406;-90
2021/06/22 08:25:27;;;;;;;0.00;0.00;;;18.40;99.90;;;;;;5031012;28;20025;-91
2021/06/22 08:27:54;;;;;;;0.00;0.00;;;18.90;99.90;;;;;;5031298;28;20409;-90
2021/06/22 08:30:21;;;;;;;;;;;18.60;99.90;;;;;;5031547;28;20052;-91
2021/06/22 08:32:47;;;;;;;0.03;0.03;;;18.60;99.90;;;;;;5031165;28;19905;-91
2021/06/22 08:35:13;;;;;;;0.00;0.00;;;18.40;99.90;;;;;;5032344;28;20112;-90
2021/06/22 08:37:38;;;;;;;0.10;0.10;;;18.30;99.90;;;;;;5031092;28;20307;-90
2021/06/22 08:40:06;;;;;;;0.00;0.00;;;19.00;99.90;;;;;;5031330;28;20491;-90
2021/06/22 08:42:35;;;;;;;0.10;0.10;;;19.60;99.90;;;;;;5031039;28;20541;-90
2021/06/22 08:45:02;;;;;;;0.00;0.00;;;20.80;99.90;;;;;;5031078;28;20052;-91
2021/06/22 08:47:28;;;;;;;0.00;0.00;;;21.70;99.90;;;;;;5030989;28;20557;-90
2021/06/22 08:49:56;;;;;;;0.00;0.00;;;25.50;99.90;;;;;;5030738;28;20053;-91
2021/06/22 08:52:25;;;;;;;0.00;0.00;;;26.30;99.90;;;;;;5030740;28;20021;-90
2021/06/22 08:54:54;;;;;;;0.05;0.05;;;27.10;99.90;;;;;;5047259;28;20017;-91
2021/06/22 08:57:21;;;;;;;0.08;0.00;;;23.50;99.90;;;;;;5012490;28;20443;-91
2021/06/22 08:59:47;;;;;;;0.30;0.30;;;21.20;99.90;;;;;;5027355;28;20520;-90
2021/06/22 09:02:14;;;;;;;0.00;0.00;;;20.00;99.90;;;;;;5027441;28;20026;-90
2021/06/22 09:04:40;;;;;;;0.10;0.10;;;19.30;99.90;;;;;;5026527;28;20560;-90
2021/06/22 09:07:06;;;;;;;0.10;0.10;;;19.10;99.90;;;;;;5011997;28;20061;-89
2021/06/22 09:09:37;;;;;;;0.23;0.20;;;19.10;99.90;;;;;;5011610;28;20061;-90
2021/06/22 09:12:08;;;;;;;0.05;0.05;;;21.60;99.90;;;;;;5027169;28;20049;-90
2021/06/22 09:14:40;;;;;;;0.03;0.03;;;24.70;99.90;;;;;;5010896;28;20046;-91
2021/06/22 09:17:07;;;;;;;0.00;0.00;;;27.30;99.90;;;;;;5027297;28;20462;-90
2021/06/22 09:19:33;;;;;;;;;;;24.40;99.90;;;;;;5027323;28;20685;-91
2021/06/22 09:22:18;;;;;;;0.00;0.00;;;22.80;99.90;;;;;;5011249;28;19906;-91
2021/06/22 09:25:08;;;;;;;0.00;0.00;;;22.60;99.90;;;;;;5027473;28;20037;-91
2021/06/22 09:27:51;;;;;;;0.00;0.00;;;22.20;99.90;;;;;;5027499;28;20406;-90
2021/06/22 09:30:37;;;;;;;0.00;0.00;;;22.00;99.90;;;;;;5027597;28;20026;-90
2021/06/22 09:33:16;;;;;;;0.10;0.10;;;21.20;99.90;;;;;;5027342;28;20033;-90
2021/06/22 09:35:43;;;;;;;0.10;0.10;;;21.40;99.90;;;;;;5012298;28;20022;-90
2021/06/22 09:38:09;;;;;;;0.00;0.00;;;22.20;99.90;;;;;;5026851;28;20061;-90
2021/06/22 09:40:35;;;;;;;0.00;0.00;;;22.90;99.90;;;;;;5027203;28;20026;-90
2021/06/22 09:43:01;;;;;;;0.00;0.00;;;24.00;99.90;;;;;;5027042;28;20026;-91
2021/06/22 09:45:29;;;;;;;0.00;0.00;;;25.30;99.10;;;;;;5027000;28;20033;-91
2021/06/22 09:47:58;;;;;;;0.00;0.00;;;27.50;96.80;;;;;;5026477;28;20030;-91
2021/06/22 09:50:36;;;;;;;0.00;0.00;;;29.10;92.70;;;;;;5026511;28;20033;-91
2021/06/22 09:53:24;;;;;;;0.00;0.00;;;25.20;93.50;;;;;;5026576;28;20022;-91
2021/06/22 09:55:50;;;;;;;0.17;0.17;;;22.60;95.90;;;;;;5027593;28;20088;-90
2021/06/22 09:58:16;;;;;;;0.10;0.10;;;22.00;97.80;;;;;;5031437;28;20104;-90
2021/06/22 10:00:42;;;;;;;0.98;0.63;;;21.10;98.10;;;;;;5030108;28;20030;-90
2021/06/22 10:03:10;;;;;;;0.00;0.00;;;20.80;99.90;;;;;;5032738;28;20029;-91
2021/06/22 10:05:52;;;;;;;0.00;0.00;;;20.70;99.90;;;;;;5033469;28;20049;-89
2021/06/22 10:08:18;;;;;;;0.00;0.00;;;22.00;99.00;;;;;;5033577;28;20056;-90
2021/06/22 10:10:44;;;;;;;0.08;0.08;;;22.20;97.80;;;;;;5034771;28;20056;-90
2021/06/22 10:13:41;;;;;;;0.10;0.07;;;22.70;97.30;;;;;;5033847;28;20030;-90
2021/06/22 10:16:21;;;;;;;0.00;0.00;;;22.50;97.20;;;;;;5050206;28;20064;-90
2021/06/22 10:18:47;;;;;;;0.43;0.22;;;22.00;98.60;;;;;;5033802;28;20426;-91
2021/06/22 10:21:13;;;;;;;0.03;0.03;;;21.90;97.90;;;;;;5033836;28;20025;-91
2021/06/22 10:23:40;;;;;;;1.30;0.60;;;22.20;98.10;;;;;;5032368;28;20542;-89
2021/06/22 10:26:06;;;;;;;0.00;0.00;;;22.50;97.90;;;;;;5030633;28;20029;-89
2021/06/22 10:28:34;;;;;;;0.08;0.08;;;23.30;97.00;;;;;;5032079;28;20084;-88
2021/06/22 10:31:00;;;;;;;0.00;0.00;;;27.80;93.30;;;;;;5032272;28;20025;-88
2021/06/22 10:33:26;;;;;;;0.00;0.00;;;27.40;88.30;;;;;;5032180;28;20022;-88
2021/06/22 10:35:52;;;;;;;0.30;0.05;;;32.10;74.00;;;;;;5030870;28;20095;-88
2021/06/22 10:38:20;;;;;;;;;;;27.30;82.00;;;;;;5046364;28;20041;-89
2021/06/22 10:40:55;;;;;;;0.00;0.00;;;24.50;90.40;;;;;;5030681;28;19904;-86
2021/06/22 10:43:38;;;;;;;0.00;0.00;;;23.00;92.10;;;;;;5027074;28;20553;-87
2021/06/22 10:46:06;;;;;;;0.40;0.40;;;22.00;93.70;;;;;;5046467;28;20284;-86
2021/06/22 10:48:41;;;;;;;0.00;0.00;;;21.20;95.60;;;;;;5012246;28;20064;-87
2021/06/22 10:51:26;;;;;;;0.05;0.05;;;20.10;98.60;;;;;;5019055;28;20522;-88
2021/06/22 10:53:51;;;;;;;0.20;0.20;;;20.20;97.70;;;;;;5041565;28;20028;-89
2021/06/22 10:56:18;;;;;;;0.00;0.00;;;20.40;97.40;;;;;;5026954;28;20029;-89
2021/06/22 10:59:11;;;;;;;0.00;0.00;;;20.20;98.10;;;;;;5047824;28;20030;-87
2021/06/22 11:01:51;;;;;;;0.10;0.10;;;20.80;97.90;;;;;;5031022;28;20414;-88
2021/06/22 11:04:18;;;;;;;0.00;0.00;;;23.10;95.90;;;;;;5034900;28;20033;-88
2021/06/22 11:07:00;;;;;;;0.50;0.08;;;26.00;90.80;;;;;;5016629;28;20175;-88
2021/06/22 11:09:26;;;;;;;0.00;0.00;;;24.70;91.60;;;;;;5019896;28;20033;-89
2021/06/22 11:12:21;;;;;;;0.13;0.10;;;23.30;93.30;;;;;;5011482;28;20032;-88
2021/06/22 11:15:01;;;;;;;0.00;0.00;;;23.20;93.10;;;;;;5013312;28;20051;-89
2021/06/22 11:17:42;;;;;;;0.00;0.00;;;24.20;92.50;;;;;;5030280;28;20025;-88
2021/06/22 11:20:15;;;;;;;0.00;0.00;;;27.30;88.30;;;;;;5031087;28;21188;-88
2021/06/22 11:23:08;;;;;;;0.00;0.00;;;35.20;73.60;;;;;;5011311;28;20727;-88
2021/06/22 11:26:01;;;;;;;0.00;0.00;;;27.50;75.80;;;;;;5010960;28;20688;-88
2021/06/22 11:28:28;;;;;;;0.00;0.00;;;24.40;83.10;;;;;;5023595;28;20141;-88
2021/06/22 11:31:00;;;;;;;0.00;0.00;;;22.50;89.60;;;;;;5019999;28;20021;-88
2021/06/22 11:33:34;;;;;;;0.00;0.00;;;23.30;88.30;;;;;;5043529;28;20021;-88
2021/06/22 11:36:22;;;;;;;0.10;0.10;;;24.30;86.90;;;;;;5022679;28;20052;-88
2021/06/22 11:39:25;;;;;;;0.00;0.00;;;24.90;83.90;;;;;;5022339;28;20415;-88
2021/06/22 11:42:11;;;;;;;0.00;0.00;;;24.80;86.10;;;;;;5030587;28;20385;-90
2021/06/22 11:45:19;;;;;;;0.00;0.00;;;24.60;86.10;;;;;;5024963;28;20044;-88
2021/06/22 11:47:44;;;;;;;0.10;0.10;;;24.20;89.20;;;;;;4978350;28;20038;-88
2021/06/22 11:50:10;;;;;;;0.00;0.00;;;23.80;90.20;;;;;;4970215;28;20058;-90
2021/06/22 11:52:39;;;;;;;0.10;0.10;;;23.70;88.20;;;;;;4971266;28;20492;-90
2021/06/22 11:55:24;;;;;;;0.00;0.00;;;23.80;86.60;;;;;;4970973;28;20030;-90
2021/06/22 11:57:58;;;;;;;0.00;0.00;;;24.00;85.70;;;;;;4990292;28;20034;-89
2021/06/22 12:00:28;;;;;;;0.00;0.00;;;24.10;85.90;;;;;;4990054;28;20041;-90
2021/06/22 12:02:58;;;;;;;0.00;0.00;;;24.40;86.40;;;;;;4989878;28;20133;-90
2021/06/22 12:05:26;;;;;;;0.00;0.00;;;23.60;87.10;;;;;;4989626;28;20046;-89
2021/06/22 12:07:53;;;;;;;0.00;0.00;;;23.50;90.00;;;;;;4990057;28;20022;-89
2021/06/22 12:10:23;;;;;;;0.15;0.05;;;23.30;86.80;;;;;;4989877;28;20030;-90
2021/06/22 12:12:51;;;;;;;0.00;0.00;;;23.40;87.40;;;;;;4989985;28;20042;-90
2021/06/22 12:15:35;;;;;;;0.00;0.00;;;22.80;90.00;;;;;;4989449;28;20034;-89
2021/06/22 12:18:02;;;;;;;0.00;0.00;;;24.30;85.90;;;;;;4996407;28;20062;-89
2021/06/22 12:20:31;;;;;;;0.00;0.00;;;24.00;86.20;;;;;;5011341;28;20041;-89
2021/06/22 12:23:08;;;;;;;0.13;0.10;;;24.30;84.90;;;;;;5011507;28;20515;-90
2021/06/22 12:25:44;;;;;;;0.00;0.00;;;24.80;82.40;;;;;;5011190;28;20033;-89
2021/06/22 12:28:10;;;;;;;0.00;0.00;;;24.20;82.50;;;;;;5011167;28;20037;-90
2021/06/22 12:30:41;;;;;;;0.00;0.00;;;24.00;82.90;;;;;;5011262;28;20514;-90
2021/06/22 12:33:17;;;;;;;0.00;0.00;;;23.80;82.50;;;;;;5047280;28;20053;-90
2021/06/22 12:35:46;;;;;;;0.00;0.00;;;23.20;86.10;;;;;;5033085;28;20018;-90
2021/06/22 12:38:15;;;;;;;1.65;0.57;;;23.30;84.20;;;;;;5010873;28;20038;-89
2021/06/22 12:40:49;;;;;;;0.00;0.00;;;23.20;85.50;;;;;;5025930;28;20565;-89
2021/06/22 12:43:18;;;;;;;6.72;0.17;;;22.80;85.70;;;;;;5009629;28;20045;-89
2021/06/22 12:45:46;;;;;;;0.28;0.28;;;22.30;85.80;;;;;;5011121;28;20105;-89
2021/06/22 12:48:13;;;;;;;0.00;0.00;;;22.60;86.70;;;;;;5009208;28;20030;-89
2021/06/22 12:50:40;;;;;;;0.00;0.00;;;23.10;86.10;;;;;;5011136;28;20080;-89
2021/06/22 12:53:10;;;;;;;0.20;0.20;;;22.90;86.80;;;;;;5009987;28;20460;-89
2021/06/22 12:55:47;;;;;;;0.05;0.05;;;23.00;87.60;;;;;;5010885;28;20068;-89
2021/06/22 12:58:14;;;;;;;0.00;0.00;;;23.10;86.20;;;;;;5010811;28;20021;-89
2021/06/22 13:00:45;;;;;;;0.00;0.00;;;23.20;86.10;;;;;;5010542;28;20730;-90
2021/06/22 13:03:21;;;;;;;0.00;0.00;;;22.70;86.30;;;;;;5010793;28;20507;-89
2021/06/22 13:05:52;;;;;;;0.00;0.00;;;22.50;87.10;;;;;;5010878;28;20086;-90
2021/06/22 13:08:20;;;;;;;0.00;0.00;;;22.10;88.20;;;;;;5011073;28;20033;-90
2021/06/22 13:10:49;;;;;;;0.55;0.55;;;21.80;89.60;;;;;;5011237;28;20424;-89